createdAt,value
2023-05-05T00:00:01.236Z,101005.28
2023-05-05T00:03:03.355Z,101016.34
2023-05-05T00:06:05.728Z,101022.38
2023-05-05T00:09:07.684Z,101024.31
2023-05-05T00:12:09.529Z,101012.12
2023-05-05T00:15:11.355Z,101015.97
2023-05-05T00:18:16.197Z,101012.81
2023-05-05T00:21:18.516Z,101016.56
2023-05-05T00:24:21.352Z,101007.91
2023-05-05T00:27:23.168Z,101005.06
2023-05-05T00:30:25.401Z,101007.16
2023-05-05T00:33:27.257Z,101007.16
2023-05-05T00:36:29.059Z,101002.84
2023-05-05T00:39:32.122Z,101010.34
2023-05-05T00:42:44.988Z,101004.28
2023-05-05T00:45:48.028Z,101013.53
2023-05-05T00:48:50.997Z,101011.75
2023-05-05T00:51:52.780Z,101015.72
2023-05-05T00:54:54.584Z,101007.94
2023-05-05T00:57:58.023Z,101013.50
2023-05-05T01:00:59.997Z,101012.25
2023-05-05T01:04:01.997Z,101010.53
2023-05-05T01:07:35.796Z,101008.03
2023-05-05T01:10:57.309Z,101009.06
2023-05-05T01:14:12.769Z,101004.06
2023-05-05T01:17:22.288Z,101011.50
2023-05-05T01:20:32.127Z,101015.25
2023-05-05T01:23:50.045Z,101023.41
2023-05-05T01:27:34.073Z,101017.34
2023-05-05T01:31:01.660Z,101015.38
2023-05-05T01:34:08.894Z,101022.75
2023-05-05T01:37:15.553Z,101024.66
2023-05-05T01:40:21.354Z,101022.22
2023-05-05T01:43:23.607Z,101025.28
2023-05-05T01:46:25.799Z,101028.56
2023-05-05T01:49:28.363Z,101032.38
2023-05-05T01:52:30.503Z,101029.78
2023-05-05T01:55:32.510Z,101020.25
2023-05-05T01:58:34.766Z,101044.50
2023-05-05T02:01:39.303Z,101060.56
2023-05-05T02:04:43.534Z,101070.53
2023-05-05T02:07:49.501Z,101053.25
2023-05-05T02:10:52.402Z,101040.97
2023-05-05T02:13:54.962Z,101036.94
2023-05-05T02:16:57.142Z,101031.34
2023-05-05T02:20:00.164Z,101039.97
2023-05-05T02:23:02.067Z,101039.91
2023-05-05T02:26:07.309Z,101038.94
2023-05-05T02:29:17.601Z,101040.78
2023-05-05T02:32:34.217Z,101039.91
2023-05-05T02:35:39.260Z,101034.56
2023-05-05T02:38:43.883Z,101037.41
2023-05-05T02:41:47.393Z,101039.22
2023-05-05T02:44:50.754Z,101031.41
2023-05-05T02:47:52.628Z,101036.78
2023-05-05T02:50:54.349Z,101028.88
2023-05-05T02:53:56.362Z,101040.75
2023-05-05T02:56:58.987Z,101036.63
2023-05-05T03:00:09.527Z,101054.50
2023-05-05T03:03:37.802Z,101045.12
2023-05-05T03:06:41.497Z,101041.91
2023-05-05T03:09:47.116Z,101047.25
2023-05-05T03:12:53.227Z,101038.34
2023-05-05T03:15:56.386Z,101037.50
2023-05-05T03:18:59.585Z,101039.03
2023-05-05T03:22:03.836Z,101032.81
2023-05-05T03:25:06.358Z,101033.94
2023-05-05T03:28:08.160Z,101020.22
2023-05-05T03:31:10.054Z,101029.81
2023-05-05T03:34:11.897Z,101030.59
2023-05-05T03:37:13.683Z,101034.16
2023-05-05T03:40:15.411Z,101038.84
2023-05-05T03:43:17.264Z,101036.66
2023-05-05T03:46:19.187Z,101031.00
2023-05-05T03:49:20.966Z,101037.00
2023-05-05T03:52:22.853Z,101038.50
2023-05-05T03:55:25.177Z,101041.84
2023-05-05T03:58:27.007Z,101041.59
2023-05-05T04:01:30.057Z,101019.44
2023-05-05T04:04:32.174Z,100989.69
2023-05-05T04:07:33.983Z,101013.59
2023-05-05T04:10:36.092Z,101026.91
2023-05-05T04:13:37.990Z,101050.09
2023-05-05T04:16:40.042Z,101004.09
2023-05-05T04:19:42.143Z,101043.37
2023-05-05T04:22:43.917Z,101050.84
2023-05-05T04:25:45.759Z,101052.72
2023-05-05T04:28:47.531Z,101038.28
2023-05-05T04:31:50.630Z,101001.31
2023-05-05T04:34:53.023Z,100990.81
2023-05-05T04:37:54.879Z,100991.00
2023-05-05T04:40:56.663Z,100991.75
2023-05-05T04:43:58.497Z,100974.06
2023-05-05T04:47:00.827Z,100965.31
2023-05-05T04:50:02.776Z,100966.69
2023-05-05T04:53:04.615Z,100971.72
2023-05-05T04:56:06.726Z,100982.59
2023-05-05T04:59:08.560Z,101004.94
2023-05-05T05:02:10.375Z,101016.37
2023-05-05T05:05:12.324Z,101010.37
2023-05-05T05:08:16.574Z,101019.47
2023-05-05T05:11:18.332Z,101013.34
2023-05-05T05:14:20.110Z,101017.09
2023-05-05T05:17:22.750Z,101021.72
2023-05-05T05:20:24.622Z,101018.78
2023-05-05T05:23:26.851Z,101017.72
2023-05-05T05:26:28.695Z,101023.75
2023-05-05T05:29:30.470Z,101028.94
2023-05-05T05:32:33.467Z,101027.72
2023-05-05T05:35:35.405Z,101054.81
2023-05-05T05:38:37.363Z,101032.09
2023-05-05T05:41:39.147Z,101028.44
2023-05-05T05:44:41.293Z,101032.34
2023-05-05T05:47:43.155Z,101015.41
2023-05-05T05:50:45.021Z,101011.41
2023-05-05T05:53:46.867Z,101004.75
2023-05-05T05:56:48.627Z,100993.13
2023-05-05T05:59:50.850Z,100948.69
2023-05-05T06:02:52.799Z,100970.62
2023-05-05T06:05:54.721Z,100975.72
2023-05-05T06:08:56.639Z,100972.19
2023-05-05T06:11:58.437Z,100959.28
2023-05-05T06:15:00.286Z,100949.44
2023-05-05T06:18:02.219Z,100930.25
2023-05-05T06:21:04.493Z,100953.78
2023-05-05T06:24:06.524Z,100916.00
2023-05-05T06:27:08.229Z,100949.19
2023-05-05T06:30:10.750Z,100929.13
2023-05-05T06:33:12.695Z,100950.22
2023-05-05T06:36:14.809Z,100940.97
2023-05-05T06:39:17.033Z,100940.31
2023-05-05T06:42:19.027Z,100931.19
2023-05-05T06:45:20.799Z,100870.63
2023-05-05T06:48:22.662Z,100916.62
2023-05-05T06:51:25.042Z,100886.00
2023-05-05T06:54:27.051Z,100906.47
2023-05-05T06:57:28.976Z,100900.81
2023-05-05T07:00:30.877Z,100909.56
2023-05-05T07:03:32.859Z,100915.37
2023-05-05T07:06:35.117Z,100894.31
2023-05-05T07:09:36.992Z,100886.12
2023-05-05T07:12:38.857Z,100866.25
2023-05-05T07:15:46.713Z,100870.72
2023-05-05T07:18:48.900Z,100871.81
2023-05-05T07:21:51.943Z,100870.09
2023-05-05T07:24:53.841Z,100866.69
2023-05-05T07:27:56.545Z,100834.00
2023-05-05T07:30:58.372Z,100850.37
2023-05-05T07:34:00.333Z,100849.38
2023-05-05T07:37:02.262Z,100840.63
2023-05-05T07:40:04.346Z,100866.12
2023-05-05T07:43:06.247Z,100857.09
2023-05-05T07:46:08.761Z,100878.16
2023-05-05T07:49:10.755Z,100855.28
2023-05-05T07:52:12.579Z,100840.50
2023-05-05T07:55:14.457Z,100832.16
2023-05-05T07:58:16.398Z,100839.72
2023-05-05T08:01:18.427Z,100844.63
2023-05-05T08:04:20.236Z,100846.66
2023-05-05T08:07:22.331Z,100824.97
2023-05-05T08:10:24.361Z,100864.53
2023-05-05T08:13:26.136Z,100863.69
2023-05-05T08:16:28.054Z,100863.78
2023-05-05T08:19:29.992Z,100835.38
2023-05-05T08:22:32.047Z,100828.91
2023-05-05T08:25:33.879Z,100831.31
2023-05-05T08:28:39.174Z,100841.13
2023-05-05T08:31:41.195Z,100822.81
2023-05-05T08:34:43.056Z,100838.88
2023-05-05T08:37:44.930Z,100835.41
2023-05-05T08:40:46.951Z,100818.06
2023-05-05T08:43:49.318Z,100824.69
2023-05-05T08:46:51.499Z,100823.94
2023-05-05T08:49:53.951Z,100829.66
2023-05-05T08:53:17.992Z,100829.66
2023-05-05T08:56:24.237Z,100835.56
2023-05-05T08:59:30.102Z,100848.88
2023-05-05T09:02:32.906Z,100852.12
2023-05-05T09:05:35.918Z,100839.50
2023-05-05T09:08:38.680Z,100824.59
2023-05-05T09:11:41.785Z,100819.53
2023-05-05T09:14:43.657Z,100809.34
2023-05-05T09:17:45.848Z,100811.38
2023-05-05T09:20:47.634Z,100804.41
2023-05-05T09:24:08.607Z,100824.97
2023-05-05T09:27:21.694Z,100841.03
2023-05-05T09:30:25.145Z,100781.03
2023-05-05T09:33:31.163Z,100795.91
2023-05-05T09:36:47.576Z,100775.31
2023-05-05T09:39:54.446Z,100799.81
2023-05-05T09:43:01.495Z,100793.50
2023-05-05T09:46:07.978Z,100758.38
2023-05-05T09:49:18.116Z,100761.47
2023-05-05T09:52:19.914Z,100779.66
2023-05-05T09:55:22.064Z,100764.25
2023-05-05T09:58:28.267Z,100783.78
2023-05-05T10:01:30.228Z,100743.56
2023-05-05T10:04:33.023Z,100782.69
2023-05-05T10:07:35.766Z,100792.34
2023-05-05T10:10:53.805Z,100807.97
2023-05-05T10:13:55.905Z,100775.75
2023-05-05T10:16:58.458Z,100773.06
2023-05-05T10:20:01.562Z,100745.09
2023-05-05T10:23:06.602Z,100765.63
2023-05-05T10:26:10.599Z,100727.31
2023-05-05T10:29:46.065Z,100742.63
2023-05-05T10:33:00.881Z,100714.19
2023-05-05T10:36:07.754Z,100739.03
2023-05-05T10:39:10.910Z,100729.63
2023-05-05T10:42:13.699Z,100715.44
2023-05-05T10:45:16.025Z,100696.09
2023-05-05T10:48:34.756Z,100694.06
2023-05-05T10:51:54.895Z,100692.44
2023-05-05T10:55:19.432Z,100668.97
2023-05-05T10:58:43.739Z,100688.94
2023-05-05T11:01:53.932Z,100683.75
2023-05-05T11:05:10.844Z,100690.84
2023-05-05T11:08:25.820Z,100684.25
2023-05-05T11:12:03.676Z,100683.94
2023-05-05T11:15:23.948Z,100661.31
2023-05-05T11:18:33.789Z,100638.41
2023-05-05T11:22:01.925Z,100666.28
2023-05-05T11:25:36.161Z,100667.37
2023-05-05T11:29:03.648Z,100648.88
2023-05-05T11:32:15.980Z,100656.56
2023-05-05T11:35:18.016Z,100632.53
2023-05-05T11:38:24.612Z,100652.66
2023-05-05T11:41:32.495Z,100655.13
2023-05-05T11:44:34.680Z,100603.94
2023-05-05T11:47:36.612Z,100622.91
2023-05-05T11:50:38.831Z,100616.94
2023-05-05T11:53:49.853Z,100600.34
2023-05-05T11:57:05.027Z,100622.16
2023-05-05T12:00:09.731Z,100576.09
2023-05-05T12:03:12.490Z,100609.53
2023-05-05T12:06:14.466Z,100601.41
2023-05-05T12:09:17.592Z,100600.06
2023-05-05T12:12:20.487Z,100569.91
2023-05-05T12:15:29.950Z,100582.00
2023-05-05T12:18:31.801Z,100575.94
2023-05-05T12:21:34.701Z,100576.25
2023-05-05T12:24:36.446Z,100590.25
2023-05-05T12:27:38.941Z,100583.41
2023-05-05T12:30:41.121Z,100539.81
2023-05-05T12:33:43.183Z,100560.16
2023-05-05T12:36:45.020Z,100573.94
2023-05-05T12:39:46.886Z,100591.56
2023-05-05T12:42:49.218Z,100569.81
2023-05-05T12:46:05.641Z,100598.53
2023-05-05T12:49:07.894Z,100628.56
2023-05-05T12:52:10.115Z,100597.00
2023-05-05T12:55:12.954Z,100583.75
2023-05-05T12:58:14.824Z,100611.38
2023-05-05T13:01:16.744Z,100603.50
2023-05-05T13:04:19.763Z,100587.22
2023-05-05T13:07:22.494Z,100592.34
2023-05-05T13:10:28.362Z,100546.69
2023-05-05T13:13:32.232Z,100572.31
2023-05-05T13:16:34.436Z,100569.31
2023-05-05T13:19:41.953Z,100568.66
2023-05-05T13:22:44.100Z,100552.59
2023-05-05T13:25:46.053Z,100554.12
2023-05-05T13:28:48.085Z,100547.12
2023-05-05T13:31:50.692Z,100538.25
2023-05-05T13:34:53.062Z,100541.66
2023-05-05T13:37:54.865Z,100501.50
2023-05-05T13:40:56.781Z,100513.84
2023-05-05T13:43:58.595Z,100508.63
2023-05-05T13:47:00.438Z,100538.84
2023-05-05T13:50:02.395Z,100534.47
2023-05-05T13:53:04.337Z,100530.75
2023-05-05T13:56:06.376Z,100519.44
2023-05-05T13:59:08.216Z,100544.28
2023-05-05T14:02:10.080Z,100524.75
2023-05-05T14:05:11.861Z,100528.91
2023-05-05T14:08:13.837Z,100517.84
2023-05-05T14:11:17.999Z,100531.47
2023-05-05T14:14:20.148Z,100499.47
2023-05-05T14:17:21.886Z,100521.78
2023-05-05T14:20:23.790Z,100519.72
2023-05-05T14:23:25.668Z,100519.78
2023-05-05T14:26:27.588Z,100519.03
2023-05-05T14:29:29.360Z,100513.72
2023-05-05T14:32:31.123Z,100509.78
2023-05-05T14:35:32.913Z,100505.25
2023-05-05T14:38:34.730Z,100519.78
2023-05-05T14:41:36.558Z,100509.88
2023-05-05T14:44:38.968Z,100496.34
2023-05-05T14:47:40.959Z,100504.00
2023-05-05T14:50:42.816Z,100517.97
2023-05-05T14:53:44.822Z,100473.16
2023-05-05T14:56:46.759Z,100499.13
2023-05-05T14:59:52.002Z,100458.41
2023-05-05T15:02:53.899Z,100478.88
2023-05-05T15:05:55.882Z,100478.84
2023-05-05T15:08:57.724Z,100478.06
2023-05-05T15:11:59.863Z,100471.97
2023-05-05T15:15:01.932Z,100452.53
2023-05-05T15:18:04.066Z,100453.56
2023-05-05T15:21:06.093Z,100496.19
2023-05-05T15:24:08.010Z,100459.06
2023-05-05T15:27:09.771Z,100487.63
2023-05-05T15:30:13.985Z,100490.69
2023-05-05T15:33:17.703Z,100495.47
2023-05-05T15:36:22.574Z,100481.16
2023-05-05T15:39:25.886Z,100487.97
2023-05-05T15:42:27.763Z,100487.28
2023-05-05T15:45:32.751Z,100496.59
2023-05-05T15:48:37.794Z,100490.72
2023-05-05T15:51:40.616Z,100498.28
2023-05-05T15:54:42.914Z,100499.00
2023-05-05T15:57:45.139Z,100500.19
2023-05-05T16:00:47.878Z,100498.66
2023-05-05T16:03:50.484Z,100498.00
2023-05-05T16:06:52.461Z,100507.75
2023-05-05T16:09:59.337Z,100507.25
2023-05-05T16:13:05.072Z,100508.78
2023-05-05T16:16:09.866Z,100503.16
2023-05-05T16:19:12.087Z,100490.84
2023-05-05T16:22:13.928Z,100499.41
2023-05-05T16:25:18.296Z,100495.28
2023-05-05T16:28:20.074Z,100480.25
2023-05-05T16:31:22.088Z,100500.56
2023-05-05T16:34:24.528Z,100499.53
2023-05-05T16:37:26.966Z,100512.31
2023-05-05T16:40:28.904Z,100499.53
2023-05-05T16:43:30.758Z,100512.31
2023-05-05T16:46:35.600Z,100507.53
2023-05-05T16:49:37.642Z,100515.50
2023-05-05T16:52:39.430Z,100521.81
2023-05-05T16:55:41.368Z,100517.50
2023-05-05T17:01:45.203Z,100530.75
2023-05-05T17:04:46.954Z,100537.69
2023-05-05T17:07:48.721Z,100536.47
2023-05-05T17:10:50.784Z,100552.63
2023-05-05T17:13:53.020Z,100557.88
2023-05-05T17:16:54.929Z,100549.50
2023-05-05T17:19:57.053Z,100565.38
2023-05-05T17:22:59.138Z,100587.22
2023-05-05T17:26:00.964Z,100585.72
2023-05-05T17:29:02.844Z,100593.25
2023-05-05T17:32:05.199Z,100597.25
2023-05-05T17:35:07.382Z,100594.44
2023-05-05T17:38:10.114Z,100595.06
2023-05-05T17:41:12.605Z,100600.13
2023-05-05T17:44:14.603Z,100607.16
2023-05-05T17:47:16.443Z,100612.22
2023-05-05T17:50:21.937Z,100617.72
2023-05-05T17:53:24.662Z,100623.34
2023-05-05T17:56:29.068Z,100635.00
2023-05-05T17:59:31.633Z,100631.62
2023-05-05T18:02:36.655Z,100629.94
2023-05-05T18:05:38.604Z,100639.41
2023-05-05T18:08:40.738Z,100638.81
2023-05-05T18:11:42.894Z,100646.97
2023-05-05T18:14:44.709Z,100659.84
2023-05-05T18:17:46.444Z,100648.69
2023-05-05T18:20:48.760Z,100661.13
2023-05-05T18:23:50.684Z,100679.22
2023-05-05T18:26:52.744Z,100677.19
2023-05-05T18:29:55.000Z,100693.16
2023-05-05T18:32:56.801Z,100698.94
2023-05-05T18:35:58.552Z,100712.16
2023-05-05T18:39:00.587Z,100750.78
2023-05-05T18:42:03.530Z,100738.63
2023-05-05T18:45:05.777Z,100748.50
2023-05-05T18:48:07.840Z,100722.53
2023-05-05T18:51:09.878Z,100719.13
2023-05-05T18:54:11.642Z,100723.53
2023-05-05T18:57:13.368Z,100725.03
2023-05-05T19:00:16.740Z,100725.78
2023-05-05T19:03:19.619Z,100726.09
2023-05-05T19:06:21.595Z,100730.78
2023-05-05T19:09:23.490Z,100736.09
2023-05-05T19:12:25.261Z,100732.56
2023-05-05T19:15:27.451Z,100739.69
2023-05-05T19:18:29.286Z,100739.94
2023-05-05T19:21:31.624Z,100738.59
2023-05-05T19:24:35.450Z,100746.13
2023-05-05T19:27:37.224Z,100735.66
2023-05-05T19:30:38.964Z,100733.22
2023-05-05T19:33:45.088Z,100734.97
2023-05-05T19:36:46.856Z,100738.66
2023-05-05T19:39:49.646Z,100744.78
2023-05-05T19:42:51.570Z,100737.91
2023-05-05T19:45:53.817Z,100748.19
2023-05-05T19:48:55.949Z,100745.00
2023-05-05T19:51:58.891Z,100755.31
2023-05-05T19:55:01.094Z,100760.53
2023-05-05T19:58:03.058Z,100764.66
2023-05-05T20:01:04.916Z,100753.62
2023-05-05T20:04:06.777Z,100766.69
2023-05-05T20:07:09.106Z,100772.13
2023-05-05T20:10:13.244Z,100756.25
2023-05-05T20:13:16.162Z,100763.34
2023-05-05T20:16:18.279Z,100759.00
2023-05-05T20:19:20.112Z,100757.66
2023-05-05T20:22:21.891Z,100755.81
2023-05-05T20:25:23.914Z,100737.84
2023-05-05T20:28:26.830Z,100760.91
2023-05-05T20:31:28.778Z,100748.97
2023-05-05T20:34:31.359Z,100753.50
2023-05-05T20:37:33.185Z,100745.63
2023-05-05T20:40:35.242Z,100744.12
2023-05-05T20:43:37.509Z,100743.50
2023-05-05T20:46:39.429Z,100739.53
2023-05-05T20:49:41.541Z,100743.53
2023-05-05T20:52:43.334Z,100744.72
2023-05-05T20:55:45.259Z,100743.13
2023-05-05T20:58:47.114Z,100738.16
2023-05-05T21:01:49.057Z,100744.00
2023-05-05T21:04:51.110Z,100739.59
2023-05-05T21:07:53.882Z,100746.41
2023-05-05T21:10:55.822Z,100752.13
2023-05-05T21:13:57.568Z,100747.25
2023-05-05T21:16:59.335Z,100757.53
2023-05-05T21:20:01.621Z,100753.53
2023-05-05T21:23:03.985Z,100755.37
2023-05-05T21:26:05.967Z,100749.53
2023-05-05T21:29:08.521Z,100738.25
2023-05-05T21:32:11.394Z,100735.94
2023-05-05T21:35:13.316Z,100739.94
2023-05-05T21:38:15.097Z,100724.84
2023-05-05T21:41:17.045Z,100739.47
2023-05-05T21:44:18.805Z,100733.88
2023-05-05T21:47:20.607Z,100739.81
2023-05-05T21:50:22.519Z,100724.78
2023-05-05T21:53:24.745Z,100723.81
2023-05-05T21:56:26.799Z,100718.22
2023-05-05T21:59:28.715Z,100721.13
2023-05-05T22:02:30.752Z,100724.56
2023-05-05T22:05:32.544Z,100723.38
2023-05-05T22:08:34.940Z,100719.81
2023-05-05T22:11:36.761Z,100722.50
2023-05-05T22:14:38.485Z,100728.75
2023-05-05T22:17:40.930Z,100728.09
2023-05-05T22:20:43.321Z,100732.72
2023-05-05T22:23:46.076Z,100729.66
2023-05-05T22:26:47.828Z,100735.25
2023-05-05T22:29:49.707Z,100742.13
2023-05-05T22:32:51.713Z,100744.38
2023-05-05T22:35:53.490Z,100734.31
2023-05-05T22:38:55.231Z,100733.47
2023-05-05T22:41:57.384Z,100725.53
2023-05-05T22:44:59.303Z,100731.84
2023-05-05T22:48:01.101Z,100727.63
2023-05-05T22:51:03.466Z,100725.06
2023-05-05T22:54:05.477Z,100718.81
2023-05-05T22:57:07.837Z,100731.69
2023-05-05T23:00:10.733Z,100732.94
2023-05-05T23:03:12.679Z,100731.78
2023-05-05T23:06:14.522Z,100735.44
2023-05-05T23:09:16.347Z,100765.16
2023-05-05T23:12:18.260Z,100782.97
2023-05-05T23:15:20.349Z,100778.22
2023-05-05T23:18:22.202Z,100737.97
2023-05-05T23:21:24.030Z,100728.03
2023-05-05T23:24:26.515Z,100737.81
2023-05-05T23:27:28.398Z,100745.41
2023-05-05T23:30:30.552Z,100743.09
2023-05-05T23:33:41.993Z,100734.69
2023-05-05T23:36:44.148Z,100737.56
2023-05-05T23:39:45.970Z,100739.88
2023-05-05T23:42:47.793Z,100746.28
2023-05-05T23:45:49.566Z,100744.72
2023-05-05T23:48:51.451Z,100761.66
2023-05-05T23:51:53.312Z,100755.87
2023-05-05T23:54:55.019Z,100748.22
2023-05-05T23:57:56.986Z,100735.09
